エカテリンブルク の空港の天気 - METARとTAF

コルツォヴォ空港 ( USSS / SVX ) - ロシア エカテリンブルク
飛行場実況気象(Metar)
観測時間11/18 16:30 YEKT (11/18 11:30 UTC)
風向・風速南 3m/s
視程10km以上
天気現象
全天を覆う雲 雲底高度 670m
気温-3℃
湿度93%
気圧1017hPa
METARUSSS 181130Z 19003MPS 9999 OVC022 M03/M04 Q1017 R26R/450140 NOSIG RMK QFE742/0990
過去の天気等 Google飛行場航空写真 Wunderground天気予報

過去48時間のMETAR

飛行場予報(TAF)
発表時間: 11/18 15:57 YEKT (11/18 10:57 UTC)
予報対象時間: 18日17時 YEKT ~ 19日17時 YEKT
風向・風速南西 6m/s
視程5,000m
天気現象弱いしゅう雪
全天の8割程度の雲 雲底高度 340m
全天の4割程度の積乱雲 雲底高度 610m
TAF USSS 181057Z 1812/1912 22006MPS 5000 -SHSN BKN011 SCT020CB